Startpagina
METAR-TAF:

METAR-TAF

Vliegvelden :

Nouakchott, Mauretanië

Internationale luchthaven van Nouakchott

breedte: 18-18-36N, lengte: 015-58-11W, hoogte: 3 m

Actueel weer

Dit bericht is 38 minuten geleden gemaakt, om 02:30 UTC
Wind 3 kt uit het zuidwesten
Temperatuur 27°C
Vochtigheid 84%
Druk 1009 hPa
Zicht: 7000 m
Verspreide wolken op 1000 ft

METAR: GQNO 240230Z 23003KT 7000 SCT010 27/24 Q1009 NOSIG

Tijdstip: 03:08 (03:08 UTC)

Verwachting

Dit bericht is 4 uur en het 8 minuten geleden gemaakt, om 23:00 UTC
Verwachting geldig van 24 om 00 UTC tot 25 om 06 UTC
Wind 10 kt uit het westzuidwesten
Zicht: 7000 m
Kans 30% :
Tijdelijke
van 24 om 06 UTC tot 24 om 10 UTC
Gebroken wolken op 800 ft

TAF: GQNO 232300Z 2400/2506 25010KT 7000 NSC PROB30 TEMPO 2406/2410 BKN008

Waarnemingen en weersverwachtingen van meer dan 4000 vliegvelden (METAR en TAF).

De beschikbare stations zijn de gele en rode punten op de kaart.

Ga met uw muis naar het station om de naam te zien.

Klik dan om waarnemingen en weersverwachtingen te zien.

kaart wijzigen: klik op de groene knoppen met een zwart kruis om in te zoomen, op de groene knop met een streepje om uit te zoomen of op de groene pijlen voor aangrenzende kaarten.


METAR-TAF: